Aérodrome :
LOGIN :

S'inscrire | Disclaimer

   EN    FR    IT 

 










Légende :    VFR   VFR Marginal   IFR   IFR Intensif   IFR Très Intensif
Visi : 
Plafond : 
>= 8 km
>= 3000ft
5 à 8 km
1000 à 3000 ft
1500m à 5 km
500 à 1000 ft
800 à 1500m
200 à 500 ft
< 800m
< 200 ft
Symboles :   Orages  Brouillard  Fortes neiges  Fortes précipitations  Vent > 20 kt
SIGMETs :   Divers  Orages  Givrage  Turbulence  Onde Orograph.  Cendres Volcan.






- Altitude de l'aérodrome : 1276 ft
- Code IATA : STR


EDDS - Stuttgart

DERNIER METAR :
  • 260350Z VRB01KT 9999 BKN023 06/05 Q1022

METARs EXPIRÉS :
  • 260320Z VRB02KT 9999 SCT023 SCT040 06/05 Q1022
  • 260250Z VRB02KT 9999 -RA FEW025 BKN046 06/05 Q1022
  • 260220Z VRB01KT 9999 -RA SCT025 BKN043 06/05 Q1022
  • 260150Z VRB01KT 9999 BKN043 06/04 Q1022
  • 260120Z 07001KT 9999 SCT040 05/04 Q1021

TAF TAF EDDS
Valide du 26 à 00h jusqu'au 27 à 00h UTC


252300Z 2600/2624 VRB03KT 9999 SCT035
PROB30
TEMPO 2601/2606 4000 -DZ BR



MET'MAP, la Météo Aéronautique d'un coup d'oeil ! - Copyright ORBIFLY Décembre 2007 - Disclaimer

ORBIFLY MET'MAP TEAM :

Programmation & Développement : Alexandra Zaïnal
Sur une idée originale de : Baudouin d'Aumeries
Assistance à la programmation : Marc-Olivier Méhu
Soutien technique & logistique : Manuel Goepfert

Contact : metmap@orbifly.com




SOURCES & CREDITS :

   NOAA